sensor_id;sensor_type;location;lat;lon;timestamp;pressure;altitude;pressure_sealevel;temperature;humidity
46111;BME280;31849;55.992;37.252;2024-01-16T00:02:45;96577.91;;;-2.61;79.82
46111;BME280;31849;55.992;37.252;2024-01-16T00:07:49;96576.22;;;-2.58;79.59
46111;BME280;31849;55.992;37.252;2024-01-16T00:12:52;96586.41;;;-2.55;79.66
46111;BME280;31849;55.992;37.252;2024-01-16T00:17:58;96588.94;;;-2.67;79.68
46111;BME280;31849;55.992;37.252;2024-01-16T00:23:02;96590.63;;;-2.61;79.56
46111;BME280;31849;55.992;37.252;2024-01-16T00:28:06;96599.09;;;-2.64;79.23
46111;BME280;31849;55.992;37.252;2024-01-16T00:33:11;96593.16;;;-2.65;79.10
46111;BME280;31849;55.992;37.252;2024-01-16T00:38:15;96583.00;;;-2.58;78.75
46111;BME280;31849;55.992;37.252;2024-01-16T00:43:19;96581.31;;;-2.61;78.84
46111;BME280;31849;55.992;37.252;2024-01-16T00:48:24;96585.56;;;-2.57;78.74
46111;BME280;31849;55.992;37.252;2024-01-16T00:53:28;96589.75;;;-2.68;78.92
46111;BME280;31849;55.992;37.252;2024-01-16T00:58:32;96581.25;;;-2.73;79.36
46111;BME280;31849;55.992;37.252;2024-01-16T01:03:37;96573.63;;;-2.75;79.12
46111;BME280;31849;55.992;37.252;2024-01-16T01:08:41;96569.41;;;-2.71;79.27
46111;BME280;31849;55.992;37.252;2024-01-16T01:13:44;96574.50;;;-2.63;79.08
46111;BME280;31849;55.992;37.252;2024-01-16T01:18:50;96579.59;;;-2.70;79.17
46111;BME280;31849;55.992;37.252;2024-01-16T01:23:54;96574.50;;;-2.71;79.77
46111;BME280;31849;55.992;37.252;2024-01-16T01:28:58;96567.72;;;-2.63;79.52
46111;BME280;31849;55.992;37.252;2024-01-16T01:34:03;96578.69;;;-2.79;80.19
46111;BME280;31849;55.992;37.252;2024-01-16T01:39:07;96556.69;;;-2.70;80.06
46111;BME280;31849;55.992;37.252;2024-01-16T01:44:11;96560.94;;;-2.67;79.82
46111;BME280;31849;55.992;37.252;2024-01-16T01:49:20;96563.50;;;-2.64;79.61
46111;BME280;31849;55.992;37.252;2024-01-16T01:54:24;96566.84;;;-2.73;79.79
46111;BME280;31849;55.992;37.252;2024-01-16T01:59:31;96564.34;;;-2.63;79.11
46111;BME280;31849;55.992;37.252;2024-01-16T02:04:36;96565.97;;;-2.78;80.08
46111;BME280;31849;55.992;37.252;2024-01-16T02:09:40;96560.91;;;-2.73;79.72
46111;BME280;31849;55.992;37.252;2024-01-16T02:14:44;96573.63;;;-2.76;80.04
46111;BME280;31849;55.992;37.252;2024-01-16T02:19:49;96571.94;;;-2.77;79.65
46111;BME280;31849;55.992;37.252;2024-01-16T02:24:54;96578.66;;;-2.89;80.12
46111;BME280;31849;55.992;37.252;2024-01-16T02:29:59;96584.59;;;-2.85;79.90
46111;BME280;31849;55.992;37.252;2024-01-16T02:35:05;96578.72;;;-2.73;79.22
46111;BME280;31849;55.992;37.252;2024-01-16T02:40:11;96560.91;;;-2.72;79.48
46111;BME280;31849;55.992;37.252;2024-01-16T02:45:15;96586.38;;;-2.67;78.87
46111;BME280;31849;55.992;37.252;2024-01-16T02:50:19;96594.84;;;-2.74;79.29
46111;BME280;31849;55.992;37.252;2024-01-16T02:55:25;96594.84;;;-2.67;79.04
46111;BME280;31849;55.992;37.252;2024-01-16T03:00:29;96596.50;;;-2.76;79.25
46111;BME280;31849;55.992;37.252;2024-01-16T03:05:32;96592.28;;;-2.76;78.90
46111;BME280;31849;55.992;37.252;2024-01-16T03:10:38;96591.41;;;-2.78;79.06
46111;BME280;31849;55.992;37.252;2024-01-16T03:15:42;96599.91;;;-2.80;79.13
46111;BME280;31849;55.992;37.252;2024-01-16T03:20:46;96600.72;;;-2.86;79.24
46111;BME280;31849;55.992;37.252;2024-01-16T03:25:51;96597.38;;;-2.76;78.75
46111;BME280;31849;55.992;37.252;2024-01-16T03:30:55;96608.41;;;-2.63;78.55
46111;BME280;31849;55.992;37.252;2024-01-16T03:35:58;96588.94;;;-2.62;78.38
46111;BME280;31849;55.992;37.252;2024-01-16T03:41:04;96594.03;;;-2.64;78.38
46111;BME280;31849;55.992;37.252;2024-01-16T03:46:10;96597.41;;;-2.59;78.00
46111;BME280;31849;55.992;37.252;2024-01-16T03:51:14;96598.22;;;-2.77;79.28
46111;BME280;31849;55.992;37.252;2024-01-16T03:56:22;96591.47;;;-2.67;78.68
46111;BME280;31849;55.992;37.252;2024-01-16T04:01:32;96605.88;;;-2.61;78.63
46111;BME280;31849;55.992;37.252;2024-01-16T04:06:36;96606.75;;;-2.59;78.50
46111;BME280;31849;55.992;37.252;2024-01-16T04:11:41;96594.88;;;-2.63;78.59
46111;BME280;31849;55.992;37.252;2024-01-16T04:16:45;96605.88;;;-2.61;78.29
46111;BME280;31849;55.992;37.252;2024-01-16T04:21:49;96602.50;;;-2.54;78.30
46111;BME280;31849;55.992;37.252;2024-01-16T04:26:54;96590.66;;;-2.52;78.02
46111;BME280;31849;55.992;37.252;2024-01-16T04:31:59;96600.84;;;-2.54;78.25
46111;BME280;31849;55.992;37.252;2024-01-16T04:37:03;96599.94;;;-2.63;78.39
46111;BME280;31849;55.992;37.252;2024-01-16T04:42:08;96611.00;;;-2.57;78.23
46111;BME280;31849;55.992;37.252;2024-01-16T04:47:12;96619.47;;;-2.58;78.46
46111;BME280;31849;55.992;37.252;2024-01-16T04:52:16;96609.28;;;-2.64;78.54
46111;BME280;31849;55.992;37.252;2024-01-16T04:57:21;96620.31;;;-2.63;78.36
46111;BME280;31849;55.992;37.252;2024-01-16T05:02:25;96616.06;;;-2.58;78.03
46111;BME280;31849;55.992;37.252;2024-01-16T05:07:29;96624.50;;;-2.70;77.95
46111;BME280;31849;55.992;37.252;2024-01-16T05:12:34;96627.03;;;-2.73;78.47
46111;BME280;31849;55.992;37.252;2024-01-16T05:17:38;96631.28;;;-2.75;78.11
46111;BME280;31849;55.992;37.252;2024-01-16T05:22:42;96638.00;;;-2.85;78.36
46111;BME280;31849;55.992;37.252;2024-01-16T05:27:47;96631.28;;;-2.75;77.98
46111;BME280;31849;55.992;37.252;2024-01-16T05:32:51;96621.09;;;-2.78;77.75
46111;BME280;31849;55.992;37.252;2024-01-16T05:37:56;96621.88;;;-2.87;77.98
46111;BME280;31849;55.992;37.252;2024-01-16T05:43:03;96632.94;;;-2.82;77.86
46111;BME280;31849;55.992;37.252;2024-01-16T05:48:07;96629.53;;;-2.79;77.85
46111;BME280;31849;55.992;37.252;2024-01-16T05:53:11;96622.81;;;-2.73;77.59
46111;BME280;31849;55.992;37.252;2024-01-16T05:58:16;96630.34;;;-2.88;77.60
46111;BME280;31849;55.992;37.252;2024-01-16T06:03:20;96627.09;;;-2.64;76.96
46111;BME280;31849;55.992;37.252;2024-01-16T06:08:23;96623.69;;;-2.60;76.88
46111;BME280;31849;55.992;37.252;2024-01-16T06:13:29;96635.53;;;-2.73;77.42
46111;BME280;31849;55.992;37.252;2024-01-16T06:18:34;96635.56;;;-2.62;76.59
46111;BME280;31849;55.992;37.252;2024-01-16T06:23:38;96627.91;;;-2.67;76.72
46111;BME280;31849;55.992;37.252;2024-01-16T06:28:44;96648.31;;;-2.57;76.49
46111;BME280;31849;55.992;37.252;2024-01-16T06:33:48;96650.78;;;-2.74;76.79
46111;BME280;31849;55.992;37.252;2024-01-16T06:38:51;96666.06;;;-2.71;76.45
46111;BME280;31849;55.992;37.252;2024-01-16T06:43:57;96659.19;;;-2.91;76.29
46111;BME280;31849;55.992;37.252;2024-01-16T06:49:01;96660.94;;;-2.74;76.12
46111;BME280;31849;55.992;37.252;2024-01-16T06:54:04;96662.59;;;-2.84;76.46
46111;BME280;31849;55.992;37.252;2024-01-16T06:59:10;96638.09;;;-2.70;76.03
46111;BME280;31849;55.992;37.252;2024-01-16T07:04:14;96647.34;;;-2.78;76.28
46111;BME280;31849;55.992;37.252;2024-01-16T07:09:18;96644.81;;;-2.78;76.07
46111;BME280;31849;55.992;37.252;2024-01-16T07:14:24;96651.66;;;-2.66;75.80
46111;BME280;31849;55.992;37.252;2024-01-16T07:19:28;96645.78;;;-2.51;75.20
46111;BME280;31849;55.992;37.252;2024-01-16T07:24:32;96639.06;;;-2.34;74.64
46111;BME280;31849;55.992;37.252;2024-01-16T07:29:38;96625.41;;;-2.56;74.25
46111;BME280;31849;55.992;37.252;2024-01-16T07:34:44;96650.97;;;-2.26;74.14
46111;BME280;31849;55.992;37.252;2024-01-16T07:39:47;96653.53;;;-2.17;73.69
46111;BME280;31849;55.992;37.252;2024-01-16T07:45:11;96644.94;;;-2.45;73.21
46111;BME280;31849;55.992;37.252;2024-01-16T07:50:15;96640.78;;;-2.17;73.27
46111;BME280;31849;55.992;37.252;2024-01-16T07:55:19;96639.13;;;-2.15;72.92
46111;BME280;31849;55.992;37.252;2024-01-16T08:00:46;96638.19;;;-2.40;72.50
46111;BME280;31849;55.992;37.252;2024-01-16T08:05:53;96628.03;;;-2.42;72.93
46111;BME280;31849;55.992;37.252;2024-01-16T08:10:58;96633.13;;;-2.39;72.63
46111;BME280;31849;55.992;37.252;2024-01-16T08:16:04;96618.75;;;-2.15;71.45
46111;BME280;31849;55.992;37.252;2024-01-16T08:21:12;96616.22;;;-1.29;69.71
46111;BME280;31849;55.992;37.252;2024-01-16T08:26:16;96625.47;;;-0.81;67.97
46111;BME280;31849;55.992;37.252;2024-01-16T08:31:22;96634.03;;;-1.13;68.09
46111;BME280;31849;55.992;37.252;2024-01-16T08:36:26;96620.47;;;-1.46;68.54
46111;BME280;31849;55.992;37.252;2024-01-16T08:41:29;96610.25;;;-1.32;68.52
46111;BME280;31849;55.992;37.252;2024-01-16T08:46:35;96621.31;;;-1.27;67.65
46111;BME280;31849;55.992;37.252;2024-01-16T08:51:38;96635.72;;;-1.03;67.50
46111;BME280;31849;55.992;37.252;2024-01-16T08:56:43;96620.47;;;-1.26;67.01
46111;BME280;31849;55.992;37.252;2024-01-16T09:01:48;96626.41;;;-1.29;67.52
46111;BME280;31849;55.992;37.252;2024-01-16T09:06:52;96623.88;;;-1.36;66.99
46111;BME280;31849;55.992;37.252;2024-01-16T09:11:57;96616.16;;;-1.07;65.92
46111;BME280;31849;55.992;37.252;2024-01-16T09:17:03;96631.47;;;-0.96;65.86
46111;BME280;31849;55.992;37.252;2024-01-16T09:22:06;96617.03;;;-1.22;65.69
46111;BME280;31849;55.992;37.252;2024-01-16T09:27:10;96599.19;;;-1.11;66.13
46111;BME280;31849;55.992;37.252;2024-01-16T09:32:17;96594.97;;;-1.34;64.85
46111;BME280;31849;55.992;37.252;2024-01-16T09:37:21;96603.50;;;-1.41;66.11
46111;BME280;31849;55.992;37.252;2024-01-16T09:42:25;96607.72;;;-1.43;66.39
46111;BME280;31849;55.992;37.252;2024-01-16T09:47:32;96607.75;;;-1.62;66.55
46111;BME280;31849;55.992;37.252;2024-01-16T09:52:38;96600.97;;;-1.75;66.54
46111;BME280;31849;55.992;37.252;2024-01-16T09:57:44;96603.50;;;-1.73;66.74
46111;BME280;31849;55.992;37.252;2024-01-16T10:02:50;96604.34;;;-1.61;66.38
46111;BME280;31849;55.992;37.252;2024-01-16T10:07:55;96600.97;;;-1.64;66.55
46111;BME280;31849;55.992;37.252;2024-01-16T10:12:59;96609.44;;;-1.67;65.93
46111;BME280;31849;55.992;37.252;2024-01-16T10:18:05;96598.41;;;-1.63;66.19
46111;BME280;31849;55.992;37.252;2024-01-16T10:23:09;96583.09;;;-1.44;65.85
46111;BME280;31849;55.992;37.252;2024-01-16T10:28:19;96580.53;;;-1.43;65.39
46111;BME280;31849;55.992;37.252;2024-01-16T10:33:28;96578.84;;;-1.42;65.38
46111;BME280;31849;55.992;37.252;2024-01-16T10:38:32;96566.09;;;-1.36;65.54
46111;BME280;31849;55.992;37.252;2024-01-16T10:43:38;96554.19;;;-1.21;65.27
46111;BME280;31849;55.992;37.252;2024-01-16T10:48:58;96544.88;;;-1.38;65.81
46111;BME280;31849;55.992;37.252;2024-01-16T10:54:03;96548.22;;;-1.27;65.45
46111;BME280;31849;55.992;37.252;2024-01-16T10:59:15;96542.31;;;-1.36;64.81
46111;BME280;31849;55.992;37.252;2024-01-16T11:04:22;96534.66;;;-1.43;65.26
46111;BME280;31849;55.992;37.252;2024-01-16T11:09:28;96533.84;;;-1.54;64.87
46111;BME280;31849;55.992;37.252;2024-01-16T11:14:32;96523.69;;;-1.60;65.45
46111;BME280;31849;55.992;37.252;2024-01-16T11:19:38;96513.50;;;-1.79;65.70
46111;BME280;31849;55.992;37.252;2024-01-16T11:25:13;96510.97;;;-1.80;65.57
46111;BME280;31849;55.992;37.252;2024-01-16T11:30:30;96521.16;;;-1.94;66.29
46111;BME280;31849;55.992;37.252;2024-01-16T11:35:37;96536.44;;;-2.02;66.27
46111;BME280;31849;55.992;37.252;2024-01-16T11:40:42;96528.81;;;-1.92;66.24
46111;BME280;31849;55.992;37.252;2024-01-16T11:45:50;96520.28;;;-1.98;66.36
46111;BME280;31849;55.992;37.252;2024-01-16T11:50:57;96522.00;;;-2.01;66.59
46111;BME280;31849;55.992;37.252;2024-01-16T11:56:13;96522.84;;;-2.13;66.22
46111;BME280;31849;55.992;37.252;2024-01-16T12:01:21;96520.31;;;-2.22;66.97
46111;BME280;31849;55.992;37.252;2024-01-16T12:06:26;96505.03;;;-2.25;66.74
46111;BME280;31849;55.992;37.252;2024-01-16T12:11:30;96519.47;;;-2.18;66.53
46111;BME280;31849;55.992;37.252;2024-01-16T12:16:44;96504.19;;;-2.26;67.19
46111;BME280;31849;55.992;37.252;2024-01-16T12:21:49;96507.59;;;-2.27;67.12
46111;BME280;31849;55.992;37.252;2024-01-16T12:26:57;96492.31;;;-2.28;67.13
46111;BME280;31849;55.992;37.252;2024-01-16T12:32:08;96487.22;;;-2.22;66.93
46111;BME280;31849;55.992;37.252;2024-01-16T12:37:14;96492.28;;;-2.39;67.27
46111;BME280;31849;55.992;37.252;2024-01-16T12:42:19;96494.00;;;-2.55;67.69
46111;BME280;31849;55.992;37.252;2024-01-16T12:47:27;96488.03;;;-2.68;67.65
46111;BME280;31849;55.992;37.252;2024-01-16T12:52:34;96482.94;;;-2.80;68.20
46111;BME280;31849;55.992;37.252;2024-01-16T12:57:37;96481.19;;;-2.92;68.42
46111;BME280;31849;55.992;37.252;2024-01-16T13:02:41;96476.03;;;-3.12;68.77
46111;BME280;31849;55.992;37.252;2024-01-16T13:08:03;96478.47;;;-3.36;69.53
46111;BME280;31849;55.992;37.252;2024-01-16T13:13:24;96489.50;;;-3.37;69.66
46111;BME280;31849;55.992;37.252;2024-01-16T13:18:30;96454.75;;;-3.47;69.79
46111;BME280;31849;55.992;37.252;2024-01-16T13:23:35;96469.19;;;-3.30;69.22
46111;BME280;31849;55.992;37.252;2024-01-16T13:28:39;96472.59;;;-3.24;69.55
46111;BME280;31849;55.992;37.252;2024-01-16T13:33:43;96478.56;;;-3.20;69.76
46111;BME280;31849;55.992;37.252;2024-01-16T13:38:48;96481.13;;;-3.12;69.46
46111;BME280;31849;55.992;37.252;2024-01-16T13:43:52;96483.66;;;-3.14;69.76
46111;BME280;31849;55.992;37.252;2024-01-16T13:48:56;96486.22;;;-3.11;69.57
46111;BME280;31849;55.992;37.252;2024-01-16T13:54:02;96485.31;;;-3.22;70.05
46111;BME280;31849;55.992;37.252;2024-01-16T13:59:06;96481.94;;;-3.18;69.65
46111;BME280;31849;55.992;37.252;2024-01-16T14:04:10;96487.88;;;-3.19;69.70
46111;BME280;31849;55.992;37.252;2024-01-16T14:09:15;96489.56;;;-3.16;70.24
46111;BME280;31849;55.992;37.252;2024-01-16T14:14:19;96479.41;;;-3.13;69.97
46111;BME280;31849;55.992;37.252;2024-01-16T14:19:23;96481.09;;;-3.22;70.13
46111;BME280;31849;55.992;37.252;2024-01-16T14:24:30;96479.38;;;-3.24;70.50
46111;BME280;31849;55.992;37.252;2024-01-16T14:29:37;96475.13;;;-3.30;70.21
46111;BME280;31849;55.992;37.252;2024-01-16T14:34:42;96464.16;;;-3.21;70.30
46111;BME280;31849;55.992;37.252;2024-01-16T14:39:47;96464.16;;;-3.20;70.21
46111;BME280;31849;55.992;37.252;2024-01-16T14:44:51;96473.50;;;-3.14;70.35
46111;BME280;31849;55.992;37.252;2024-01-16T14:49:56;96474.34;;;-3.12;70.41
46111;BME280;31849;55.992;37.252;2024-01-16T14:55:02;96466.72;;;-3.09;70.01
46111;BME280;31849;55.992;37.252;2024-01-16T15:00:11;96470.97;;;-3.11;70.24
46111;BME280;31849;55.992;37.252;2024-01-16T15:05:22;96469.25;;;-3.15;69.96
46111;BME280;31849;55.992;37.252;2024-01-16T15:10:27;96454.88;;;-3.13;69.86
46111;BME280;31849;55.992;37.252;2024-01-16T15:15:31;96450.59;;;-3.20;70.25
46111;BME280;31849;55.992;37.252;2024-01-16T15:20:35;96454.84;;;-3.17;70.10
46111;BME280;31849;55.992;37.252;2024-01-16T15:25:41;96454.84;;;-3.21;70.09
46111;BME280;31849;55.992;37.252;2024-01-16T15:30:45;96455.69;;;-3.25;70.20
46111;BME280;31849;55.992;37.252;2024-01-16T15:35:49;96454.78;;;-3.33;70.38
46111;BME280;31849;55.992;37.252;2024-01-16T15:40:55;96438.69;;;-3.40;70.88
46111;BME280;31849;55.992;37.252;2024-01-16T15:45:59;96442.97;;;-3.29;70.76
46111;BME280;31849;55.992;37.252;2024-01-16T15:51:03;96442.09;;;-3.27;70.30
46111;BME280;31849;55.992;37.252;2024-01-16T15:56:13;96428.53;;;-3.38;70.72
46111;BME280;31849;55.992;37.252;2024-01-16T16:01:17;96424.28;;;-3.42;71.04
46111;BME280;31849;55.992;37.252;2024-01-16T16:06:21;96409.84;;;-3.46;70.87
46111;BME280;31849;55.992;37.252;2024-01-16T16:11:26;96419.19;;;-3.48;71.51
46111;BME280;31849;55.992;37.252;2024-01-16T16:16:30;96414.94;;;-3.40;71.07
46111;BME280;31849;55.992;37.252;2024-01-16T16:21:34;96419.22;;;-3.38;70.85
46111;BME280;31849;55.992;37.252;2024-01-16T16:26:40;96416.69;;;-3.30;70.83
46111;BME280;31849;55.992;37.252;2024-01-16T16:31:46;96420.94;;;-3.21;70.50
46111;BME280;31849;55.992;37.252;2024-01-16T16:36:50;96404.84;;;-3.29;70.84
46111;BME280;31849;55.992;37.252;2024-01-16T16:41:55;96416.69;;;-3.28;70.83
46111;BME280;31849;55.992;37.252;2024-01-16T16:46:59;96412.50;;;-3.22;70.64
46111;BME280;31849;55.992;37.252;2024-01-16T16:52:04;96422.66;;;-3.17;70.40
46111;BME280;31849;55.992;37.252;2024-01-16T16:57:09;96419.28;;;-3.19;70.78
46111;BME280;31849;55.992;37.252;2024-01-16T17:02:13;96415.88;;;-3.18;70.73
46111;BME280;31849;55.992;37.252;2024-01-16T17:07:17;96417.56;;;-3.25;71.03
46111;BME280;31849;55.992;37.252;2024-01-16T17:12:23;96413.31;;;-3.20;70.86
46111;BME280;31849;55.992;37.252;2024-01-16T17:17:27;96404.88;;;-3.15;70.59
46111;BME280;31849;55.992;37.252;2024-01-16T17:22:34;96400.63;;;-3.24;70.96
46111;BME280;31849;55.992;37.252;2024-01-16T17:27:39;96402.31;;;-3.23;70.77
46111;BME280;31849;55.992;37.252;2024-01-16T17:32:43;96402.34;;;-3.14;70.95
46111;BME280;31849;55.992;37.252;2024-01-16T17:37:48;96399.78;;;-3.17;70.84
46111;BME280;31849;55.992;37.252;2024-01-16T17:42:53;96401.44;;;-3.22;71.04
46111;BME280;31849;55.992;37.252;2024-01-16T17:47:57;96402.31;;;-3.23;71.13
46111;BME280;31849;55.992;37.252;2024-01-16T17:53:02;96398.91;;;-3.22;71.07
46111;BME280;31849;55.992;37.252;2024-01-16T17:58:10;96407.41;;;-3.23;71.01
46111;BME280;31849;55.992;37.252;2024-01-16T18:03:14;96399.75;;;-3.31;71.06
46111;BME280;31849;55.992;37.252;2024-01-16T18:08:38;96402.31;;;-3.26;70.90
46111;BME280;31849;55.992;37.252;2024-01-16T18:13:43;96402.31;;;-3.20;71.05
46111;BME280;31849;55.992;37.252;2024-01-16T18:18:47;96406.53;;;-3.22;71.16
46111;BME280;31849;55.992;37.252;2024-01-16T18:23:54;96410.78;;;-3.27;71.47
46111;BME280;31849;55.992;37.252;2024-01-16T18:29:01;96396.34;;;-3.39;71.97
46111;BME280;31849;55.992;37.252;2024-01-16T18:34:06;96420.09;;;-3.28;71.88
46111;BME280;31849;55.992;37.252;2024-01-16T18:39:11;96415.03;;;-3.20;71.51
46111;BME280;31849;55.992;37.252;2024-01-16T18:44:18;96416.75;;;-3.21;71.21
46111;BME280;31849;55.992;37.252;2024-01-16T18:49:22;96424.31;;;-3.25;71.62
46111;BME280;31849;55.992;37.252;2024-01-16T18:54:26;96427.72;;;-3.25;71.52
46111;BME280;31849;55.992;37.252;2024-01-16T18:59:32;96431.09;;;-3.32;71.61
46111;BME280;31849;55.992;37.252;2024-01-16T19:04:36;96426.00;;;-3.35;72.09
46111;BME280;31849;55.992;37.252;2024-01-16T19:09:44;96431.91;;;-3.34;72.10
46111;BME280;31849;55.992;37.252;2024-01-16T19:14:49;96435.28;;;-3.40;72.12
46111;BME280;31849;55.992;37.252;2024-01-16T19:19:53;96438.72;;;-3.32;71.80
46111;BME280;31849;55.992;37.252;2024-01-16T19:24:57;96443.78;;;-3.40;71.73
46111;BME280;31849;55.992;37.252;2024-01-16T19:30:04;96450.47;;;-3.56;72.34
46111;BME280;31849;55.992;37.252;2024-01-16T19:35:09;96461.47;;;-3.52;72.21
46111;BME280;31849;55.992;37.252;2024-01-16T19:40:14;96468.25;;;-3.57;72.47
46111;BME280;31849;55.992;37.252;2024-01-16T19:45:21;96474.13;;;-3.61;72.48
46111;BME280;31849;55.992;37.252;2024-01-16T19:50:24;96481.75;;;-3.64;72.76
46111;BME280;31849;55.992;37.252;2024-01-16T19:55:31;96496.06;;;-3.74;72.51
46111;BME280;31849;55.992;37.252;2024-01-16T20:00:36;96490.91;;;-3.86;72.56
46111;BME280;31849;55.992;37.252;2024-01-16T20:05:42;96509.50;;;-3.88;72.63
46111;BME280;31849;55.992;37.252;2024-01-16T20:10:46;96516.22;;;-3.99;72.91
46111;BME280;31849;55.992;37.252;2024-01-16T20:15:51;96519.53;;;-4.08;72.84
46111;BME280;31849;55.992;37.252;2024-01-16T20:20:55;96526.34;;;-4.03;72.77
46111;BME280;31849;55.992;37.252;2024-01-16T20:25:59;96530.53;;;-4.07;73.15
46111;BME280;31849;55.992;37.252;2024-01-16T20:31:04;96534.78;;;-4.04;72.68
46111;BME280;31849;55.992;37.252;2024-01-16T20:36:09;96538.19;;;-4.01;72.95
46111;BME280;31849;55.992;37.252;2024-01-16T20:41:14;96540.63;;;-4.13;73.05
46111;BME280;31849;55.992;37.252;2024-01-16T20:46:19;96551.63;;;-4.13;72.76
46111;BME280;31849;55.992;37.252;2024-01-16T20:51:22;96553.31;;;-4.13;73.04
46111;BME280;31849;55.992;37.252;2024-01-16T20:56:30;96557.59;;;-4.08;72.97
46111;BME280;31849;55.992;37.252;2024-01-16T21:01:36;96532.13;;;-4.21;72.57
46111;BME280;31849;55.992;37.252;2024-01-16T21:06:40;96550.84;;;-4.06;72.56
46111;BME280;31849;55.992;37.252;2024-01-16T21:11:44;96565.16;;;-4.15;72.96
46111;BME280;31849;55.992;37.252;2024-01-16T21:16:49;96565.06;;;-4.25;73.63
46111;BME280;31849;55.992;37.252;2024-01-16T21:21:54;96563.50;;;-4.10;72.84
46111;BME280;31849;55.992;37.252;2024-01-16T21:26:58;96569.47;;;-4.07;72.78
46111;BME280;31849;55.992;37.252;2024-01-16T21:32:03;96577.09;;;-4.03;72.52
46111;BME280;31849;55.992;37.252;2024-01-16T21:37:07;96591.66;;;-3.82;72.30
46111;BME280;31849;55.992;37.252;2024-01-16T21:42:11;96604.28;;;-3.92;72.03
46111;BME280;31849;55.992;37.252;2024-01-16T21:47:16;96615.13;;;-4.08;71.57
46111;BME280;31849;55.992;37.252;2024-01-16T21:52:23;96618.50;;;-4.09;70.83
46111;BME280;31849;55.992;37.252;2024-01-16T21:57:27;96634.22;;;-4.41;69.89
46111;BME280;31849;55.992;37.252;2024-01-16T22:02:34;96642.53;;;-4.54;69.04
46111;BME280;31849;55.992;37.252;2024-01-16T22:07:38;96651.06;;;-4.49;68.46
46111;BME280;31849;55.992;37.252;2024-01-16T22:12:43;96657.41;;;-4.84;68.30
46111;BME280;31849;55.992;37.252;2024-01-16T22:17:48;96674.19;;;-4.92;66.58
46111;BME280;31849;55.992;37.252;2024-01-16T22:22:52;96675.50;;;-5.19;66.24
46111;BME280;31849;55.992;37.252;2024-01-16T22:27:56;96689.88;;;-5.18;65.87
46111;BME280;31849;55.992;37.252;2024-01-16T22:33:01;96695.44;;;-5.40;65.09
46111;BME280;31849;55.992;37.252;2024-01-16T22:38:06;96697.88;;;-5.47;65.61
46111;BME280;31849;55.992;37.252;2024-01-16T22:43:10;96703.25;;;-5.80;65.18
46111;BME280;31849;55.992;37.252;2024-01-16T22:48:15;96713.09;;;-5.94;65.18
46111;BME280;31849;55.992;37.252;2024-01-16T22:53:19;96719.50;;;-6.16;65.89
46111;BME280;31849;55.992;37.252;2024-01-16T22:58:24;96720.47;;;-6.09;66.15
46111;BME280;31849;55.992;37.252;2024-01-16T23:03:29;96722.97;;;-6.09;65.67
46111;BME280;31849;55.992;37.252;2024-01-16T23:08:33;96730.38;;;-6.20;65.81
46111;BME280;31849;55.992;37.252;2024-01-16T23:13:37;96740.53;;;-6.19;66.77
46111;BME280;31849;55.992;37.252;2024-01-16T23:18:43;96751.34;;;-6.26;66.70
46111;BME280;31849;55.992;37.252;2024-01-16T23:23:48;96751.03;;;-6.41;66.91
46111;BME280;31849;55.992;37.252;2024-01-16T23:28:53;96761.94;;;-6.44;67.18
46111;BME280;31849;55.992;37.252;2024-01-16T23:33:58;96767.63;;;-6.54;66.97
46111;BME280;31849;55.992;37.252;2024-01-16T23:39:02;96771.91;;;-6.51;67.55
46111;BME280;31849;55.992;37.252;2024-01-16T23:44:07;96782.28;;;-6.77;67.54
46111;BME280;31849;55.992;37.252;2024-01-16T23:49:12;96791.34;;;-6.87;68.53
46111;BME280;31849;55.992;37.252;2024-01-16T23:54:17;96791.53;;;-6.78;68.32
46111;BME280;31849;55.992;37.252;2024-01-16T23:59:20;96799.28;;;-6.70;67.76
